createdAt,value
2023-03-07T00:02:37.610Z,48.38
2023-03-07T00:05:23.321Z,48.33
2023-03-07T00:08:09.568Z,48.27
2023-03-07T00:10:55.924Z,48.47
2023-03-07T00:13:42.068Z,48.50
2023-03-07T00:16:27.975Z,48.56
2023-03-07T00:19:14.154Z,48.21
2023-03-07T00:21:59.949Z,48.43
2023-03-07T00:24:48.628Z,48.52
2023-03-07T00:27:35.299Z,48.59
2023-03-07T00:30:21.184Z,48.65
2023-03-07T00:33:08.008Z,48.77
2023-03-07T00:36:02.658Z,49.04
2023-03-07T00:38:56.187Z,48.71
2023-03-07T00:41:42.225Z,48.86
2023-03-07T00:44:30.153Z,48.88
2023-03-07T00:47:15.946Z,48.70
2023-03-07T00:50:02.322Z,48.60
2023-03-07T00:52:48.128Z,48.70
2023-03-07T00:55:34.024Z,48.77
2023-03-07T00:58:20.684Z,48.57
2023-03-07T01:01:12.833Z,48.75
2023-03-07T01:03:59.619Z,48.65
2023-03-07T01:06:45.408Z,49.05
2023-03-07T01:09:31.362Z,48.98
2023-03-07T01:12:17.602Z,48.70
2023-03-07T01:15:05.425Z,48.87
2023-03-07T01:17:51.886Z,48.74
2023-03-07T01:20:38.998Z,48.85
2023-03-07T01:23:24.963Z,48.81
2023-03-07T01:26:20.330Z,49.03
2023-03-07T01:29:17.697Z,49.01
2023-03-07T01:32:04.080Z,49.28
2023-03-07T01:34:50.221Z,49.14
2023-03-07T01:37:36.979Z,48.74
2023-03-07T01:40:25.166Z,49.12
2023-03-07T01:43:23.249Z,49.21
2023-03-07T01:46:18.637Z,48.93
2023-03-07T01:49:21.403Z,48.83
2023-03-07T01:52:14.260Z,48.83
2023-03-07T01:55:28.607Z,49.46
2023-03-07T01:58:19.740Z,48.93
2023-03-07T02:01:08.958Z,49.35
2023-03-07T02:04:11.024Z,49.49
2023-03-07T02:06:57.012Z,49.43
2023-03-07T02:09:44.556Z,49.79
2023-03-07T02:12:30.541Z,49.35
2023-03-07T02:15:16.767Z,49.15
2023-03-07T02:18:03.665Z,49.25
2023-03-07T02:21:20.909Z,49.59
2023-03-07T02:24:32.735Z,49.98
2023-03-07T02:27:18.968Z,49.09
2023-03-07T02:30:05.709Z,49.59
2023-03-07T02:32:51.527Z,49.57
2023-03-07T02:35:37.345Z,49.58
2023-03-07T02:38:26.696Z,49.69
2023-03-07T02:41:13.256Z,49.94
2023-03-07T02:44:00.300Z,49.94
2023-03-07T02:46:46.854Z,49.55
2023-03-07T02:49:32.890Z,49.92
2023-03-07T02:52:20.299Z,50.00
2023-03-07T02:55:07.711Z,49.92
2023-03-07T02:57:56.721Z,49.63
2023-03-07T03:00:42.731Z,49.60
2023-03-07T03:03:28.590Z,49.76
2023-03-07T03:06:14.503Z,49.89
2023-03-07T03:09:00.730Z,49.57
2023-03-07T03:11:46.791Z,49.77
2023-03-07T03:14:33.653Z,49.82
2023-03-07T03:17:19.313Z,49.93
2023-03-07T03:20:11.784Z,49.80
2023-03-07T03:22:57.790Z,49.83
2023-03-07T03:25:43.641Z,49.62
2023-03-07T03:28:30.030Z,50.01
2023-03-07T03:31:16.362Z,50.10
2023-03-07T03:34:02.334Z,49.70
2023-03-07T03:36:49.291Z,50.25
2023-03-07T03:39:36.009Z,50.33
2023-03-07T03:42:22.984Z,50.42
2023-03-07T03:45:10.399Z,49.99
2023-03-07T03:47:56.391Z,49.63
2023-03-07T03:50:42.206Z,50.60
2023-03-07T03:53:28.197Z,50.17
2023-03-07T03:56:17.294Z,50.28
2023-03-07T03:59:03.676Z,50.15
2023-03-07T04:01:50.919Z,50.54
2023-03-07T04:04:38.278Z,50.51
2023-03-07T04:07:25.262Z,50.23
2023-03-07T04:10:11.627Z,50.04
2023-03-07T04:12:57.933Z,50.62
2023-03-07T04:15:44.029Z,50.29
2023-03-07T04:18:30.238Z,50.14
2023-03-07T04:21:16.064Z,50.44
2023-03-07T04:24:01.858Z,50.55
2023-03-07T04:26:50.132Z,50.32
2023-03-07T04:29:35.881Z,50.24
2023-03-07T04:32:40.207Z,50.24
2023-03-07T04:35:25.952Z,50.20
2023-03-07T04:38:14.459Z,50.31
2023-03-07T04:41:00.097Z,50.43
2023-03-07T04:43:47.078Z,50.51
2023-03-07T04:46:32.833Z,50.19
2023-03-07T04:49:18.754Z,50.38
2023-03-07T04:52:05.597Z,50.30
2023-03-07T04:54:51.870Z,50.37
2023-03-07T04:57:38.055Z,50.57
2023-03-07T05:00:25.069Z,50.65
2023-03-07T05:03:12.536Z,50.27
2023-03-07T05:06:05.415Z,50.38
2023-03-07T05:08:51.783Z,50.63
2023-03-07T05:11:37.684Z,50.52
2023-03-07T05:14:24.073Z,50.78
2023-03-07T05:17:10.839Z,50.89
2023-03-07T05:19:56.814Z,50.95
2023-03-07T05:22:43.261Z,50.61
2023-03-07T05:25:29.329Z,50.61
2023-03-07T05:28:16.988Z,50.52
2023-03-07T05:31:03.096Z,50.92
2023-03-07T05:33:49.949Z,50.72
2023-03-07T05:36:35.745Z,50.82
2023-03-07T05:39:22.996Z,51.02
2023-03-07T05:42:09.646Z,51.03
2023-03-07T05:44:56.612Z,50.70
2023-03-07T05:47:43.077Z,51.04
2023-03-07T05:50:31.780Z,50.79
2023-03-07T05:53:17.850Z,50.89
2023-03-07T05:56:04.999Z,51.07
2023-03-07T05:58:51.817Z,50.62
2023-03-07T06:01:38.390Z,50.63
2023-03-07T06:04:24.390Z,50.98
2023-03-07T06:07:10.343Z,50.60
2023-03-07T06:09:56.097Z,51.00
2023-03-07T06:12:41.914Z,50.95
2023-03-07T06:15:27.969Z,51.07
2023-03-07T06:18:21.759Z,50.93
2023-03-07T06:21:09.068Z,50.83
2023-03-07T06:24:00.174Z,50.88
2023-03-07T06:26:45.916Z,51.11
2023-03-07T06:29:32.940Z,51.08
2023-03-07T06:32:19.166Z,50.98
2023-03-07T06:35:05.479Z,51.05
2023-03-07T06:37:52.102Z,50.87
2023-03-07T06:40:38.181Z,51.09
2023-03-07T06:43:24.050Z,50.75
2023-03-07T06:46:10.640Z,51.38
2023-03-07T06:48:59.846Z,50.80
2023-03-07T06:51:56.535Z,50.88
2023-03-07T06:54:42.245Z,51.30
2023-03-07T06:57:28.118Z,50.69
2023-03-07T07:00:15.240Z,50.97
2023-03-07T07:03:01.433Z,51.28
2023-03-07T07:05:47.221Z,50.72
2023-03-07T07:08:33.620Z,50.93
2023-03-07T07:11:19.318Z,51.01
2023-03-07T07:14:05.865Z,51.08
2023-03-07T07:16:52.351Z,50.89
2023-03-07T07:19:38.776Z,50.85
2023-03-07T07:22:24.888Z,50.78
2023-03-07T07:25:11.290Z,51.31
2023-03-07T07:27:57.024Z,50.95
2023-03-07T07:30:43.321Z,51.26
2023-03-07T07:33:32.032Z,51.24
2023-03-07T07:36:18.070Z,50.80
2023-03-07T07:39:07.801Z,51.24
2023-03-07T07:41:56.412Z,51.03
2023-03-07T07:44:47.047Z,50.90
2023-03-07T07:47:34.114Z,50.98
2023-03-07T07:50:21.409Z,51.16
2023-03-07T07:53:07.264Z,50.98
2023-03-07T07:55:53.569Z,50.92
2023-03-07T07:58:40.703Z,51.02
2023-03-07T08:01:26.817Z,51.06
2023-03-07T08:04:12.656Z,50.81
2023-03-07T08:06:58.582Z,51.03
2023-03-07T08:09:44.379Z,50.81
2023-03-07T08:12:30.202Z,51.09
2023-03-07T08:15:17.175Z,50.97
2023-03-07T08:18:02.895Z,50.65
2023-03-07T08:20:48.783Z,50.86
2023-03-07T08:23:35.908Z,50.72
2023-03-07T08:26:21.812Z,50.85
2023-03-07T08:29:07.870Z,50.72
2023-03-07T08:31:54.485Z,50.88
2023-03-07T08:34:40.228Z,50.66
2023-03-07T08:37:26.131Z,50.61
2023-03-07T08:40:13.373Z,50.79
2023-03-07T08:42:59.691Z,50.52
2023-03-07T08:45:45.477Z,50.71
2023-03-07T08:48:31.430Z,50.56
2023-03-07T08:51:18.224Z,50.93
2023-03-07T08:54:04.940Z,50.70
2023-03-07T08:56:50.821Z,50.13
2023-03-07T08:59:36.621Z,50.58
2023-03-07T09:02:22.475Z,50.28
2023-03-07T09:05:08.625Z,50.65
2023-03-07T09:07:54.705Z,50.70
2023-03-07T09:10:40.510Z,50.41
2023-03-07T09:13:26.667Z,50.58
2023-03-07T09:16:12.536Z,50.49
2023-03-07T09:18:58.200Z,50.31
2023-03-07T09:21:44.102Z,50.85
2023-03-07T09:24:30.432Z,50.69
2023-03-07T09:27:16.201Z,50.60
2023-03-07T09:30:02.320Z,50.53
2023-03-07T09:32:49.257Z,50.56
2023-03-07T09:35:35.383Z,50.30
2023-03-07T09:38:21.163Z,49.97
2023-03-07T09:41:06.879Z,50.11
2023-03-07T09:44:13.012Z,50.07
2023-03-07T09:47:40.378Z,49.92
2023-03-07T09:50:39.510Z,50.09
2023-03-07T09:54:06.111Z,50.07
2023-03-07T09:57:02.764Z,49.62
2023-03-07T09:59:53.801Z,49.64
2023-03-07T10:03:06.340Z,49.81
2023-03-07T10:05:54.555Z,49.57
2023-03-07T10:08:40.884Z,49.39
2023-03-07T10:11:38.388Z,49.39
2023-03-07T10:14:50.048Z,49.38
2023-03-07T10:18:04.538Z,49.32
2023-03-07T10:21:21.686Z,49.21
2023-03-07T10:24:08.097Z,49.27
2023-03-07T10:27:09.791Z,49.21
2023-03-07T10:29:56.807Z,48.96
2023-03-07T10:32:48.436Z,48.55
2023-03-07T10:35:41.963Z,48.54
2023-03-07T10:38:39.926Z,48.73
2023-03-07T10:41:27.185Z,48.95
2023-03-07T10:44:19.124Z,48.73
2023-03-07T10:47:05.449Z,48.67
2023-03-07T10:49:54.971Z,48.69
2023-03-07T10:52:55.852Z,48.51
2023-03-07T10:55:44.372Z,48.31
2023-03-07T10:58:31.052Z,48.54
2023-03-07T11:01:18.841Z,48.60
2023-03-07T11:04:07.323Z,48.15
2023-03-07T11:06:55.700Z,48.20
2023-03-07T11:09:48.170Z,47.98
2023-03-07T11:12:45.359Z,48.18
2023-03-07T11:15:31.333Z,48.26
2023-03-07T11:18:30.273Z,48.19
2023-03-07T11:21:30.434Z,47.75
2023-03-07T11:24:37.785Z,48.03
2023-03-07T11:27:39.685Z,48.03
2023-03-07T11:30:42.673Z,48.04
2023-03-07T11:33:35.388Z,47.75
2023-03-07T11:36:31.070Z,47.87
2023-03-07T11:39:29.056Z,47.73
2023-03-07T11:42:26.428Z,47.67
2023-03-07T11:45:28.009Z,47.66
2023-03-07T11:48:22.777Z,48.00
2023-03-07T11:51:26.680Z,47.67
2023-03-07T11:54:21.587Z,47.54
2023-03-07T11:57:26.545Z,47.73
2023-03-07T12:00:38.966Z,47.38
2023-03-07T12:03:42.785Z,47.33
2023-03-07T12:07:05.191Z,46.52
2023-03-07T12:10:05.970Z,46.86
2023-03-07T12:13:24.778Z,46.82
2023-03-07T12:16:29.449Z,46.96
2023-03-07T12:19:38.414Z,46.67
2023-03-07T12:22:29.784Z,44.52
2023-03-07T12:25:19.690Z,46.91
2023-03-07T12:28:20.732Z,45.94
2023-03-07T12:31:17.733Z,46.78
2023-03-07T12:34:06.734Z,46.96
2023-03-07T12:36:57.279Z,46.86
2023-03-07T12:39:54.357Z,46.69
2023-03-07T12:43:12.922Z,46.87
2023-03-07T12:46:09.431Z,46.78
2023-03-07T12:49:01.262Z,46.61
2023-03-07T12:51:56.121Z,46.91
2023-03-07T12:54:46.231Z,46.62
2023-03-07T12:57:35.238Z,46.76
2023-03-07T13:00:22.994Z,46.48
2023-03-07T13:03:11.723Z,46.21
2023-03-07T13:05:58.136Z,46.69
2023-03-07T13:08:47.825Z,46.17
2023-03-07T13:11:34.612Z,46.61
2023-03-07T13:14:43.156Z,46.25
2023-03-07T13:17:35.123Z,46.30
2023-03-07T13:20:41.738Z,45.12
2023-03-07T13:23:28.565Z,46.35
2023-03-07T13:26:23.299Z,46.37
2023-03-07T13:29:09.202Z,46.22
2023-03-07T13:31:55.086Z,45.89
2023-03-07T13:34:46.675Z,45.88
2023-03-07T13:37:51.384Z,46.32
2023-03-07T13:40:37.163Z,46.26
2023-03-07T13:43:24.119Z,46.20
2023-03-07T13:46:45.794Z,46.28
2023-03-07T13:49:36.989Z,45.82
2023-03-07T13:52:23.147Z,45.88
2023-03-07T13:55:19.743Z,46.15
2023-03-07T13:58:16.616Z,46.09
2023-03-07T14:01:17.819Z,46.12
2023-03-07T14:04:14.047Z,45.66
2023-03-07T14:07:05.572Z,45.11
2023-03-07T14:10:21.473Z,45.50
2023-03-07T14:13:14.106Z,45.27
2023-03-07T14:16:15.332Z,45.18
2023-03-07T14:19:10.252Z,45.02
2023-03-07T14:22:13.070Z,45.39
2023-03-07T14:25:18.231Z,45.24
2023-03-07T14:28:22.652Z,44.88
2023-03-07T14:31:23.372Z,44.98
2023-03-07T14:34:21.383Z,44.93
2023-03-07T14:37:20.677Z,45.00
2023-03-07T14:40:26.891Z,45.29
2023-03-07T14:43:28.715Z,44.75
2023-03-07T14:46:20.937Z,44.86
2023-03-07T14:49:43.198Z,44.84
2023-03-07T14:52:31.790Z,45.03
2023-03-07T14:55:23.164Z,44.58
2023-03-07T14:58:19.786Z,45.08
2023-03-07T15:01:12.421Z,44.65
2023-03-07T15:03:58.270Z,44.59
2023-03-07T15:06:44.445Z,44.54
2023-03-07T15:09:32.373Z,44.40
2023-03-07T15:12:25.847Z,43.77
2023-03-07T15:15:23.028Z,43.96
2023-03-07T15:18:20.553Z,43.80
2023-03-07T15:21:07.801Z,43.84
2023-03-07T15:23:55.657Z,43.82
2023-03-07T15:26:49.312Z,43.83
2023-03-07T15:29:35.329Z,43.71
2023-03-07T15:32:39.113Z,44.19
2023-03-07T15:35:27.187Z,43.93
2023-03-07T15:38:21.578Z,43.88
2023-03-07T15:41:30.402Z,43.55
2023-03-07T15:44:18.357Z,43.52
2023-03-07T15:47:14.483Z,43.01
2023-03-07T15:50:05.050Z,43.13
2023-03-07T15:52:53.777Z,43.05
2023-03-07T15:55:40.332Z,43.00
2023-03-07T15:58:27.724Z,43.05
2023-03-07T16:01:25.413Z,42.92
2023-03-07T16:04:36.359Z,43.24
2023-03-07T16:07:22.204Z,43.28
2023-03-07T16:10:08.262Z,43.14
2023-03-07T16:12:54.816Z,43.22
2023-03-07T16:15:41.755Z,43.14
2023-03-07T16:18:30.022Z,43.28
2023-03-07T16:21:18.171Z,43.14
2023-03-07T16:24:05.162Z,43.14
2023-03-07T16:26:52.385Z,43.18
2023-03-07T16:29:39.655Z,43.29
2023-03-07T16:32:27.120Z,43.67
2023-03-07T16:35:21.944Z,43.26
2023-03-07T16:38:08.403Z,43.63
2023-03-07T16:40:54.512Z,43.68
2023-03-07T16:43:40.437Z,43.54
2023-03-07T16:46:26.701Z,43.80
2023-03-07T16:49:20.090Z,43.41
2023-03-07T16:52:06.860Z,43.80
2023-03-07T16:54:52.529Z,43.74
2023-03-07T16:57:38.733Z,43.44
2023-03-07T17:00:26.163Z,43.65
2023-03-07T17:03:12.142Z,43.51
2023-03-07T17:05:58.086Z,43.54
2023-03-07T17:08:44.804Z,43.51
2023-03-07T17:11:30.828Z,43.23
2023-03-07T17:14:17.440Z,43.26
2023-03-07T17:17:04.492Z,43.44
2023-03-07T17:19:50.797Z,43.59
2023-03-07T17:22:37.324Z,43.52
2023-03-07T17:25:23.772Z,43.42
2023-03-07T17:28:14.314Z,43.46
2023-03-07T17:31:00.288Z,43.47
2023-03-07T17:33:46.502Z,43.40
2023-03-07T17:36:32.620Z,43.68
2023-03-07T17:39:18.765Z,43.55
2023-03-07T17:42:05.175Z,43.71
2023-03-07T17:44:51.341Z,43.64
2023-03-07T17:47:37.550Z,43.41
2023-03-07T17:50:24.100Z,43.64
2023-03-07T17:53:09.884Z,43.61
2023-03-07T17:55:56.116Z,43.78
2023-03-07T17:58:42.741Z,43.60
2023-03-07T18:01:29.797Z,43.20
2023-03-07T18:04:15.736Z,43.55
2023-03-07T18:07:01.545Z,43.69
2023-03-07T18:09:53.639Z,43.54
2023-03-07T18:12:50.020Z,43.73
2023-03-07T18:15:35.773Z,43.61
2023-03-07T18:18:22.047Z,43.46
2023-03-07T18:21:11.969Z,43.64
2023-03-07T18:23:57.873Z,43.54
2023-03-07T18:26:44.068Z,43.63
2023-03-07T18:29:30.806Z,43.64
2023-03-07T18:32:17.195Z,43.53
2023-03-07T18:35:04.335Z,43.66
2023-03-07T18:37:50.154Z,43.67
2023-03-07T18:40:36.107Z,43.61
2023-03-07T18:43:22.004Z,43.69
2023-03-07T18:46:10.668Z,43.52
2023-03-07T18:48:57.741Z,43.79
2023-03-07T18:51:46.076Z,44.10
2023-03-07T18:54:32.404Z,43.90
2023-03-07T18:57:18.430Z,44.14
2023-03-07T19:00:05.658Z,43.70
2023-03-07T19:02:51.914Z,43.96
2023-03-07T19:05:45.704Z,43.94
2023-03-07T19:08:31.709Z,44.26
2023-03-07T19:11:17.742Z,43.79
2023-03-07T19:14:04.025Z,43.72
2023-03-07T19:16:50.175Z,44.05
2023-03-07T19:19:36.655Z,44.06
2023-03-07T19:22:27.472Z,43.89
2023-03-07T19:25:13.957Z,43.67
2023-03-07T19:27:59.926Z,44.10
2023-03-07T19:30:46.075Z,43.95
2023-03-07T19:33:32.401Z,44.22
2023-03-07T19:36:27.406Z,43.69
2023-03-07T19:39:20.665Z,44.24
2023-03-07T19:42:07.042Z,44.05
2023-03-07T19:44:54.689Z,43.99
2023-03-07T19:47:41.259Z,43.98
2023-03-07T19:50:27.697Z,43.59
2023-03-07T19:53:15.019Z,44.11
2023-03-07T19:56:10.901Z,44.25
2023-03-07T19:58:59.198Z,43.95
2023-03-07T20:01:46.733Z,43.97
2023-03-07T20:04:33.060Z,44.12
2023-03-07T20:07:19.091Z,44.18
2023-03-07T20:10:05.760Z,44.04
2023-03-07T20:12:53.100Z,44.26
2023-03-07T20:15:39.578Z,44.19
2023-03-07T20:18:25.708Z,44.38
2023-03-07T20:21:14.030Z,44.29
2023-03-07T20:24:00.424Z,44.13
2023-03-07T20:26:48.196Z,43.82
2023-03-07T20:29:34.971Z,44.57
2023-03-07T20:32:20.956Z,44.39
2023-03-07T20:35:07.570Z,44.03
2023-03-07T20:37:53.793Z,44.15
2023-03-07T20:40:40.100Z,44.52
2023-03-07T20:43:26.429Z,44.53
2023-03-07T20:46:14.282Z,44.35
2023-03-07T20:49:03.307Z,44.66
2023-03-07T20:51:52.201Z,44.54
2023-03-07T20:54:39.073Z,44.04
2023-03-07T20:57:25.785Z,44.50
2023-03-07T21:00:13.918Z,44.50
2023-03-07T21:03:05.976Z,44.56
2023-03-07T21:06:00.159Z,45.26
2023-03-07T21:08:47.726Z,44.61
2023-03-07T21:11:35.222Z,45.09
2023-03-07T21:14:21.236Z,45.08
2023-03-07T21:17:09.535Z,45.15
2023-03-07T21:19:55.905Z,45.08
2023-03-07T21:22:42.735Z,45.04
2023-03-07T21:25:29.940Z,45.28
2023-03-07T21:28:16.463Z,45.05
2023-03-07T21:31:07.461Z,44.86
2023-03-07T21:33:56.040Z,44.87
2023-03-07T21:36:42.752Z,44.63
2023-03-07T21:39:29.706Z,44.92
2023-03-07T21:42:16.547Z,44.95
2023-03-07T21:45:03.101Z,45.19
2023-03-07T21:47:53.378Z,45.46
2023-03-07T21:50:44.093Z,44.96
2023-03-07T21:53:30.689Z,45.14
2023-03-07T21:56:17.985Z,44.68
2023-03-07T21:59:03.984Z,44.64
2023-03-07T22:01:49.876Z,45.20
2023-03-07T22:04:35.796Z,44.97
2023-03-07T22:07:21.876Z,45.06
2023-03-07T22:10:08.903Z,45.25
2023-03-07T22:12:54.772Z,45.17
2023-03-07T22:15:40.549Z,45.36
2023-03-07T22:18:27.082Z,45.29
2023-03-07T22:21:14.449Z,45.51
2023-03-07T22:24:01.311Z,45.18
2023-03-07T22:26:47.522Z,45.72
2023-03-07T22:29:33.387Z,45.46
2023-03-07T22:32:19.252Z,45.30
2023-03-07T22:35:05.400Z,45.86
2023-03-07T22:37:51.638Z,46.06
2023-03-07T22:40:39.351Z,45.68
2023-03-07T22:43:25.493Z,45.63
2023-03-07T22:46:14.522Z,45.65
2023-03-07T22:49:00.567Z,45.78
2023-03-07T22:51:46.450Z,45.56
2023-03-07T22:54:33.479Z,45.62
2023-03-07T22:57:19.475Z,45.52
2023-03-07T23:00:06.375Z,45.66
2023-03-07T23:02:54.279Z,45.52
2023-03-07T23:05:41.677Z,45.95
2023-03-07T23:08:27.911Z,45.86
2023-03-07T23:11:14.563Z,45.99
2023-03-07T23:14:00.367Z,46.12
2023-03-07T23:16:46.352Z,45.99
2023-03-07T23:19:32.092Z,45.80
2023-03-07T23:22:18.052Z,45.83
2023-03-07T23:25:05.149Z,46.49
2023-03-07T23:27:51.166Z,46.19
2023-03-07T23:30:38.543Z,46.29
2023-03-07T23:33:24.932Z,46.32
2023-03-07T23:36:12.828Z,46.04
2023-03-07T23:38:59.292Z,46.08
2023-03-07T23:41:45.118Z,46.24
2023-03-07T23:44:30.837Z,46.26
2023-03-07T23:47:16.861Z,46.51
2023-03-07T23:50:02.982Z,46.52
2023-03-07T23:52:49.254Z,45.92
2023-03-07T23:55:35.144Z,45.93
2023-03-07T23:58:21.034Z,46.09
